createdAt,value
2023-04-18T00:12:39.100Z,6.9
2023-04-18T00:32:42.883Z,6.7
2023-04-18T00:42:45.106Z,6.7
2023-04-18T00:52:47.430Z,6.6
2023-04-18T01:02:49.503Z,6.5
2023-04-18T01:12:51.768Z,6.2
2023-04-18T01:22:54.415Z,6.2
2023-04-18T01:32:56.497Z,6.3
2023-04-18T01:42:58.829Z,6.4
2023-04-18T01:53:01.293Z,6.4
2023-04-18T02:03:03.733Z,6.4
2023-04-18T02:23:08.431Z,6
2023-04-18T02:33:10.192Z,5.9
2023-04-18T02:43:12.344Z,6
2023-04-18T02:53:14.710Z,6
2023-04-18T03:03:16.778Z,6.1
2023-04-18T03:23:21.620Z,6.2
2023-04-18T03:33:23.760Z,6.3
2023-04-18T03:43:25.866Z,6.4
2023-04-18T03:53:28.723Z,6.4
2023-04-18T04:03:30.534Z,6.5
2023-04-18T04:13:33.145Z,6.5
2023-04-18T04:23:35.028Z,6.5
2023-04-18T04:33:36.750Z,6.5
2023-04-18T04:43:39.001Z,6.5
2023-04-18T04:53:41.044Z,6.6
2023-04-18T05:03:43.679Z,6.6
2023-04-18T05:13:46.078Z,6.6
2023-04-18T05:23:48.218Z,6.6
2023-04-18T05:33:50.033Z,6.7
2023-04-18T05:44:02.217Z,6.9
2023-04-18T05:53:53.722Z,7.1
2023-04-18T06:13:58.325Z,6.7
2023-04-18T06:24:00.362Z,6.8
2023-04-18T06:34:02.876Z,6.6
2023-04-18T06:44:05.454Z,6.8
2023-04-18T06:54:07.182Z,6.8
2023-04-18T07:04:09.788Z,6.9
2023-04-18T07:14:11.479Z,7.1
2023-04-18T07:24:13.783Z,7.2
2023-04-18T07:34:15.411Z,7.2
2023-04-18T07:44:17.155Z,7.1
2023-04-18T07:54:19.652Z,7.4
2023-04-18T08:04:21.897Z,7.4
2023-04-18T08:14:23.605Z,7.7
2023-04-18T08:24:25.448Z,7.7
2023-04-18T08:34:27.571Z,7.9
2023-04-18T08:44:29.495Z,7.7
2023-04-18T09:04:33.401Z,7.9
2023-04-18T09:14:35.681Z,8
2023-04-18T09:24:37.405Z,8.2
2023-04-18T09:34:39.535Z,8.3
2023-04-18T09:44:41.200Z,8.4
2023-04-18T09:54:43.334Z,8.6
2023-04-18T10:04:45.507Z,9
2023-04-18T10:14:47.121Z,9.1
2023-04-18T10:24:48.764Z,9.2
2023-04-18T10:34:51.233Z,9.5
2023-04-18T10:44:53.645Z,9.4
2023-04-18T10:54:57.049Z,9.5
2023-04-18T11:04:58.391Z,9.7
2023-04-18T11:15:00.546Z,9.7
2023-04-18T11:25:02.965Z,10
2023-04-18T11:35:05.005Z,10.2
2023-04-18T11:45:07.068Z,10.4
2023-04-18T11:55:09.371Z,10.6
2023-04-18T12:05:11.773Z,10.5
2023-04-18T12:15:13.064Z,11
2023-04-18T12:25:15.568Z,11
2023-04-18T12:35:18.068Z,11.1
2023-04-18T12:45:19.829Z,11.1
2023-04-18T12:55:22.107Z,11
2023-04-18T13:05:24.691Z,10.9
2023-04-18T13:15:27.214Z,11.2
2023-04-18T13:25:29.077Z,12.5
2023-04-18T13:35:31.160Z,13.5
2023-04-18T13:45:33.121Z,14.1
2023-04-18T13:55:34.797Z,13.9
2023-04-18T14:05:36.693Z,13.6
2023-04-18T14:15:38.403Z,13.4
2023-04-18T14:25:40.912Z,13
2023-04-18T14:35:42.825Z,12.9
2023-04-18T14:45:45.160Z,12.9
2023-04-18T14:55:47.036Z,12.9
2023-04-18T15:05:48.890Z,12.8
2023-04-18T15:15:50.817Z,12.5
2023-04-18T15:25:53.447Z,12.7
2023-04-18T15:35:56.057Z,13
2023-04-18T15:56:00.136Z,12.8
2023-04-18T16:06:01.804Z,12.9
2023-04-18T16:16:03.562Z,13.3
2023-04-18T16:26:05.632Z,13
2023-04-18T16:36:08.248Z,13
2023-04-18T16:46:10.019Z,12.8
2023-04-18T16:56:11.973Z,12.5
2023-04-18T17:06:14.006Z,12.3
2023-04-18T17:16:16.162Z,12.2
2023-04-18T17:26:18.575Z,12
2023-04-18T17:36:20.427Z,11.9
2023-04-18T17:46:22.792Z,11.8
2023-04-18T17:56:25.448Z,11.6
2023-04-18T18:06:27.708Z,11.5
2023-04-18T18:16:29.906Z,11.3
2023-04-18T18:26:31.664Z,11.1
2023-04-18T21:27:17.080Z,9.3
2023-04-18T22:07:26.025Z,9.5
2023-04-18T22:17:28.117Z,9.6
2023-04-18T22:27:30.265Z,9.7
2023-04-18T22:37:32.073Z,9.5
2023-04-18T22:47:34.517Z,9.5
2023-04-18T22:57:36.894Z,9.7
2023-04-18T23:07:38.882Z,9.8
2023-04-18T23:17:41.191Z,9.9
2023-04-18T23:27:43.456Z,10.1
2023-04-18T23:37:45.435Z,10.2
2023-04-18T23:47:47.208Z,10.1
2023-04-18T23:57:49.442Z,10.1
